Terminal Aerodrome Forecast
Issued by NWS

Home | Current Version | Previous Version | Text Only | Print | Product List | Glossary Off
Versions: 1 2 3 4 5 6 7 8 9 10 11 12 13 14 15 16 17 18 19 20 21

000
FTUS45 KGGW 240300 AAB
TAFSDY
TAF AMD
KSDY 240318Z 2403/2424 31005KT P6SM SCT023
     FM240800 30009KT P6SM BKN015
     FM242100 28013KT P6SM BKN025
      AMD LTD TO CLD VIS AND WIND=

USA.gov is the U.S. government's official web portal to all federal, state and local government web resources and services.